Time;durP1;ratioP1;P1;durP2;ratioP2;P2;SDS_P1;SDS_P2;PMS_P1;PMS_P2;Temp;Humidity;BMP_temperature;BMP_pressure;BME280_temperature;BME280_humidity;BME280_pressure;Samples;Min_cycle;Max_cycle;Signal;HPM_P1;HPM_P2
2022/01/04 00:02:20;;;;;;;;;;;8.70;81.70;;;;;;5006320;28;87110;-42
2022/01/04 00:04:46;;;;;;;;;;;8.60;81.70;;;;;;5005252;28;89043;-42
2022/01/04 00:07:11;;;;;;;;;;;8.70;81.80;;;;;;5005955;28;87277;-42
2022/01/04 00:09:41;;;;;;;;;;;8.60;81.70;;;;;;5009181;28;87160;-42
2022/01/04 00:14:51;;;;;;;;;;;8.60;81.80;;;;;;5005729;28;86881;-41
2022/01/04 00:17:17;;;;;;;;;;;8.60;81.70;;;;;;5005844;28;89559;-42
2022/01/04 00:19:42;;;;;;;;;;;8.50;81.70;;;;;;5005875;28;87853;-42
2022/01/04 00:22:08;;;;;;;;;;;8.50;81.80;;;;;;5006133;28;86513;-42
2022/01/04 00:24:34;;;;;;;;;;;8.50;81.80;;;;;;5005883;28;87419;-42
2022/01/04 00:27:00;;;;;;;;;;;8.40;81.80;;;;;;5005186;28;89280;-42
2022/01/04 00:29:25;;;;;;;;;;;8.40;81.90;;;;;;5005111;28;88107;-42
2022/01/04 00:31:51;;;;;;;;;;;8.40;81.80;;;;;;5008017;28;89994;-42
2022/01/04 00:34:16;;;;;;;;;;;8.40;81.80;;;;;;5005799;28;87131;-41
2022/01/04 00:36:42;;;;;;;;;;;8.40;81.70;;;;;;5005539;28;88982;-41
2022/01/04 00:39:07;;;;;;;;;;;8.40;81.80;;;;;;5005158;28;89709;-41
2022/01/04 00:41:33;;;;;;;;;;;8.40;81.80;;;;;;5005604;28;87136;-41
2022/01/04 00:43:58;;;;;;;;;;;8.40;81.80;;;;;;5005594;28;87950;-41
2022/01/04 00:46:24;;;;;;;;;;;8.40;81.80;;;;;;5005257;28;87930;-41
2022/01/04 00:51:33;;;;;;;;;;;8.30;81.60;;;;;;5004031;28;86956;-41
2022/01/04 00:53:59;;;;;;;;;;;8.30;81.70;;;;;;5007422;28;89406;-42
2022/01/04 00:56:24;;;;;;;;;;;8.30;81.60;;;;;;5005188;28;89879;-41
2022/01/04 00:58:50;;;;;;;;;;;8.30;81.60;;;;;;5005120;28;87314;-42
2022/01/04 01:01:16;;;;;;;;;;;8.30;81.50;;;;;;5005465;28;87092;-42
2022/01/04 01:03:41;;;;;;;;;;;8.20;81.60;;;;;;5005518;28;87987;-42
2022/01/04 01:06:07;;;;;;;;;;;8.20;81.70;;;;;;5004833;28;88373;-41
2022/01/04 01:08:33;;;;;;;;;;;8.20;81.80;;;;;;5005221;28;86924;-41
2022/01/04 01:10:59;;;;;;;;;;;8.20;81.90;;;;;;5005700;28;88585;-41
2022/01/04 01:13:24;;;;;;;;;;;8.10;81.80;;;;;;5004570;28;89723;-41
2022/01/04 01:15:50;;;;;;;;;;;8.10;81.90;;;;;;5008123;28;86905;-41
2022/01/04 01:18:16;;;;;;;;;;;8.10;82.00;;;;;;5003879;28;91017;-41
2022/01/04 01:20:42;;;;;;;;;;;8.10;82.00;;;;;;5005042;28;87124;-42
2022/01/04 01:23:08;;;;;;;;;;;8.10;82.00;;;;;;5004888;28;88952;-41
2022/01/04 01:25:34;;;;;;;;;;;8.10;82.10;;;;;;5003993;28;89621;-41
2022/01/04 01:27:59;;;;;;;;;;;8.00;82.00;;;;;;5005003;28;86863;-41
2022/01/04 01:30:26;;;;;;;;;;;8.00;82.00;;;;;;5004730;28;89167;-41
2022/01/04 01:32:52;;;;;;;;;;;8.00;82.10;;;;;;5004370;28;89670;-41
2022/01/04 01:35:17;;;;;;;;;;;8.00;82.10;;;;;;5008386;28;86376;-42
2022/01/04 01:37:43;;;;;;;;;;;8.00;82.20;;;;;;5003122;28;91160;-41
2022/01/04 01:40:09;;;;;;;;;;;8.00;82.20;;;;;;5004980;28;87049;-42
2022/01/04 01:42:34;;;;;;;;;;;7.90;82.10;;;;;;5003951;28;88748;-42
2022/01/04 01:45:00;;;;;;;;;;;7.90;82.00;;;;;;5004189;28;89815;-42
2022/01/04 01:47:25;;;;;;;;;;;7.90;82.10;;;;;;5004473;28;87118;-42
2022/01/04 01:49:51;;;;;;;;;;;7.90;82.10;;;;;;5003825;28;88482;-41
2022/01/04 01:52:17;;;;;;;;;;;7.90;82.10;;;;;;5004149;28;89179;-41
2022/01/04 01:54:42;;;;;;;;;;;7.90;82.20;;;;;;5004517;28;87143;-41
2022/01/04 01:57:08;;;;;;;;;;;7.90;82.20;;;;;;5006870;28;88758;-41
2022/01/04 01:59:33;;;;;;;;;;;7.90;82.10;;;;;;5004471;28;86343;-41
2022/01/04 02:01:59;;;;;;;;;;;7.80;82.00;;;;;;5004595;28;87091;-41
2022/01/04 02:04:24;;;;;;;;;;;7.90;82.00;;;;;;5003902;28;88634;-41
2022/01/04 02:06:50;;;;;;;;;;;7.80;81.90;;;;;;5002187;28;88115;-41
2022/01/04 02:09:16;;;;;;;;;;;7.80;82.10;;;;;;5004309;28;89731;-41
2022/01/04 02:11:42;;;;;;;;;;;7.70;82.00;;;;;;5003854;28;89483;-41
2022/01/04 02:14:08;;;;;;;;;;;7.70;82.10;;;;;;5003952;28;87133;-41
2022/01/04 02:16:33;;;;;;;;;;;7.70;82.10;;;;;;5004029;28;88561;-41
2022/01/04 02:19:00;;;;;;;;;;;7.70;82.20;;;;;;5006880;28;87226;-41
2022/01/04 02:21:25;;;;;;;;;;;7.70;82.10;;;;;;5002718;28;90571;-41
2022/01/04 02:23:51;;;;;;;;;;;7.70;82.00;;;;;;5004299;28;88957;-41
2022/01/04 02:26:17;;;;;;;;;;;7.70;82.20;;;;;;5003532;28;87197;-41
2022/01/04 02:28:42;;;;;;;;;;;7.70;82.20;;;;;;5003941;28;87911;-41
2022/01/04 02:31:08;;;;;;;;;;;7.60;82.30;;;;;;5002763;28;90366;-41
2022/01/04 02:33:33;;;;;;;;;;;7.60;82.30;;;;;;5004132;28;87154;-41
2022/01/04 02:35:59;;;;;;;;;;;7.60;82.30;;;;;;5003732;28;89407;-41
2022/01/04 02:38:24;;;;;;;;;;;7.60;82.40;;;;;;5003549;28;88140;-41
2022/01/04 02:40:50;;;;;;;;;;;7.60;82.40;;;;;;5006674;28;86845;-41
2022/01/04 02:43:15;;;;;;;;;;;7.60;82.30;;;;;;5003178;28;89498;-41
2022/01/04 02:45:41;;;;;;;;;;;7.60;82.40;;;;;;5003535;28;87264;-41
2022/01/04 02:48:06;;;;;;;;;;;7.50;82.30;;;;;;5003986;28;89124;-41
2022/01/04 02:50:32;;;;;;;;;;;7.50;82.30;;;;;;5003360;28;88424;-41
2022/01/04 02:52:57;;;;;;;;;;;7.50;82.30;;;;;;5003543;28;87172;-41
2022/01/04 02:55:23;;;;;;;;;;;7.50;82.30;;;;;;5002894;28;89059;-41
2022/01/04 02:57:49;;;;;;;;;;;7.50;82.20;;;;;;5003076;28;89475;-41
2022/01/04 03:00:16;;;;;;;;;;;7.50;82.30;;;;;;5002273;28;87198;-41
2022/01/04 03:02:42;;;;;;;;;;;7.40;82.40;;;;;;5006070;28;88817;-41
2022/01/04 03:05:08;;;;;;;;;;;7.40;82.40;;;;;;5003417;28;86897;-41
2022/01/04 03:07:34;;;;;;;;;;;7.40;82.50;;;;;;5003300;28;88791;-41
2022/01/04 03:09:59;;;;;;;;;;;7.40;82.50;;;;;;5003215;28;89635;-41
2022/01/04 03:12:25;;;;;;;;;;;7.40;82.50;;;;;;5003825;28;86457;-41
2022/01/04 03:14:50;;;;;;;;;;;7.30;82.50;;;;;;5003149;28;87996;-41
2022/01/04 03:17:16;;;;;;;;;;;7.30;82.50;;;;;;5002816;28;89734;-41
2022/01/04 03:19:41;;;;;;;;;;;7.40;82.40;;;;;;5002772;28;88125;-41
2022/01/04 03:22:07;;;;;;;;;;;7.30;82.30;;;;;;5005780;28;90189;-41
2022/01/04 03:24:32;;;;;;;;;;;7.30;82.50;;;;;;5003250;28;87166;-42
2022/01/04 03:26:58;;;;;;;;;;;7.30;82.50;;;;;;5002681;28;88856;-41
2022/01/04 03:29:24;;;;;;;;;;;7.20;82.40;;;;;;5002502;28;89969;-41
2022/01/04 03:31:50;;;;;;;;;;;7.20;82.50;;;;;;5002939;28;87074;-41
2022/01/04 03:34:16;;;;;;;;;;;7.20;82.50;;;;;;5002978;28;89259;-41
2022/01/04 03:36:42;;;;;;;;;;;7.20;82.50;;;;;;5003154;28;89607;-41
2022/01/04 03:39:09;;;;;;;;;;;7.20;82.40;;;;;;5002815;28;87146;-41
2022/01/04 03:41:37;;;;;;;;;;;7.20;82.50;;;;;;5002996;28;88161;-41
2022/01/04 03:44:03;;;;;;;;;;;7.20;82.50;;;;;;5004528;28;90513;-41
2022/01/04 03:46:29;;;;;;;;;;;7.20;82.40;;;;;;5002976;28;88200;-41
2022/01/04 03:48:54;;;;;;;;;;;7.20;82.50;;;;;;5001308;28;91608;-41
2022/01/04 03:51:20;;;;;;;;;;;7.10;82.40;;;;;;5002756;28;87187;-41
2022/01/04 03:53:46;;;;;;;;;;;7.10;82.40;;;;;;5002921;28;87292;-41
2022/01/04 03:56:11;;;;;;;;;;;7.10;82.40;;;;;;5002408;28;90043;-41
2022/01/04 03:58:37;;;;;;;;;;;7.10;82.30;;;;;;5002698;28;87144;-41
2022/01/04 04:01:03;;;;;;;;;;;7.10;82.50;;;;;;5003494;28;88981;-41
2022/01/04 04:03:29;;;;;;;;;;;7.10;82.40;;;;;;5002358;28;89387;-41
2022/01/04 04:05:54;;;;;;;;;;;7.10;82.50;;;;;;5005684;28;87115;-41
2022/01/04 04:08:20;;;;;;;;;;;7.00;82.40;;;;;;5001714;28;89429;-41
2022/01/04 04:10:46;;;;;;;;;;;7.00;82.40;;;;;;5002507;28;87189;-41
2022/01/04 04:13:12;;;;;;;;;;;7.00;82.40;;;;;;5005839;28;87561;-41
2022/01/04 04:15:40;;;;;;;;;;;7.00;82.50;;;;;;5005526;28;89401;-41
2022/01/04 04:18:07;;;;;;;;;;;7.00;82.30;;;;;;5005942;28;87115;-41
2022/01/04 04:20:34;;;;;;;;;;;7.00;82.60;;;;;;5004914;28;90814;-41
2022/01/04 04:22:59;;;;;;;;;;;7.00;82.50;;;;;;5005573;28;89681;-41
2022/01/04 04:25:25;;;;;;;;;;;7.00;82.50;;;;;;5005665;28;86380;-41
2022/01/04 04:27:50;;;;;;;;;;;6.90;82.30;;;;;;5008251;28;88271;-41
2022/01/04 04:30:16;;;;;;;;;;;7.00;82.40;;;;;;5005598;28;87134;-41
2022/01/04 04:32:41;;;;;;;;;;;7.00;82.30;;;;;;5005102;28;88981;-41
2022/01/04 04:35:07;;;;;;;;;;;6.90;82.30;;;;;;5005069;28;90174;-41
2022/01/04 04:37:32;;;;;;;;;;;6.90;82.40;;;;;;5005648;28;87230;-41
2022/01/04 04:39:58;;;;;;;;;;;6.90;82.30;;;;;;5005822;28;87561;-41
2022/01/04 04:42:24;;;;;;;;;;;6.90;82.30;;;;;;5005433;28;87272;-41
2022/01/04 04:44:49;;;;;;;;;;;6.80;82.30;;;;;;5005298;28;86974;-41
2022/01/04 04:47:15;;;;;;;;;;;6.80;82.40;;;;;;5005693;28;88946;-41
2022/01/04 04:49:40;;;;;;;;;;;6.80;82.40;;;;;;5008480;28;88120;-41
2022/01/04 04:52:06;;;;;;;;;;;6.80;82.40;;;;;;5005611;28;87988;-41
2022/01/04 04:54:31;;;;;;;;;;;6.80;82.40;;;;;;5004948;28;89703;-41
2022/01/04 04:56:57;;;;;;;;;;;6.80;82.30;;;;;;5004992;28;88073;-41
2022/01/04 04:59:22;;;;;;;;;;;6.80;82.30;;;;;;5005571;28;88450;-41
2022/01/04 05:01:48;;;;;;;;;;;6.80;82.20;;;;;;5005096;28;87161;-41
2022/01/04 05:04:13;;;;;;;;;;;6.80;82.30;;;;;;5005208;28;86961;-42
2022/01/04 05:06:39;;;;;;;;;;;6.70;82.50;;;;;;5005148;28;88150;-41
2022/01/04 05:09:05;;;;;;;;;;;6.70;82.50;;;;;;5004982;28;88270;-41
2022/01/04 05:11:31;;;;;;;;;;;6.70;82.20;;;;;;5008041;28;87023;-41
2022/01/04 05:13:56;;;;;;;;;;;6.70;82.20;;;;;;5005100;28;89151;-41
2022/01/04 05:16:22;;;;;;;;;;;6.70;82.20;;;;;;5004981;28;86899;-41
2022/01/04 05:18:47;;;;;;;;;;;6.70;82.10;;;;;;5005114;28;88914;-41
2022/01/04 05:21:13;;;;;;;;;;;6.70;82.20;;;;;;5003980;28;90723;-41
2022/01/04 05:23:38;;;;;;;;;;;6.60;82.10;;;;;;5003789;28;87159;-41
2022/01/04 05:26:04;;;;;;;;;;;6.70;82.20;;;;;;5004515;28;89220;-41
2022/01/04 05:28:29;;;;;;;;;;;6.70;82.10;;;;;;5004410;28;89536;-41
2022/01/04 05:30:55;;;;;;;;;;;6.60;82.00;;;;;;5008213;28;87174;-41
2022/01/04 05:33:20;;;;;;;;;;;6.60;81.90;;;;;;5004412;28;89625;-41
2022/01/04 05:35:48;;;;;;;;;;;6.60;82.20;;;;;;5004704;28;87170;-42
2022/01/04 05:38:14;;;;;;;;;;;6.60;82.20;;;;;;5005174;28;87996;-41
2022/01/04 05:40:39;;;;;;;;;;;6.60;82.10;;;;;;5004404;28;88696;-41
2022/01/04 05:43:05;;;;;;;;;;;6.60;82.10;;;;;;5004497;28;86923;-42
2022/01/04 05:45:31;;;;;;;;;;;6.60;82.10;;;;;;5003902;28;88688;-41
2022/01/04 05:47:57;;;;;;;;;;;6.60;82.00;;;;;;5004076;28;89426;-41
2022/01/04 05:50:23;;;;;;;;;;;6.60;82.00;;;;;;5004514;28;87029;-41
2022/01/04 05:52:48;;;;;;;;;;;6.60;81.90;;;;;;5007025;28;88791;-41
2022/01/04 05:55:14;;;;;;;;;;;6.60;81.90;;;;;;5004187;28;87267;-41
2022/01/04 05:57:39;;;;;;;;;;;6.50;82.00;;;;;;5004290;28;89271;-41
2022/01/04 06:00:06;;;;;;;;;;;6.50;81.90;;;;;;5003918;28;89935;-41
2022/01/04 06:02:31;;;;;;;;;;;6.50;81.90;;;;;;5004813;28;86379;-41
2022/01/04 06:04:57;;;;;;;;;;;6.50;82.00;;;;;;5004394;28;88228;-41
2022/01/04 06:07:22;;;;;;;;;;;6.50;82.20;;;;;;5004089;28;90027;-41
2022/01/04 06:09:51;;;;;;;;;;;6.40;82.00;;;;;;5003615;28;88191;-41
2022/01/04 06:14:51;;;;;;;;;;;6.50;82.00;;;;;;5004058;28;87799;-41
2022/01/04 06:17:18;;;;;;;;;;;6.50;81.90;;;;;;5004392;28;86951;-41
2022/01/04 06:19:43;;;;;;;;;;;6.40;82.00;;;;;;5003711;28;89641;-42
2022/01/04 06:22:09;;;;;;;;;;;6.40;82.10;;;;;;5003914;28;87142;-41
2022/01/04 06:24:36;;;;;;;;;;;6.40;81.90;;;;;;5003969;28;88668;-41
2022/01/04 06:27:04;;;;;;;;;;;6.40;81.90;;;;;;5003959;28;88704;-41
2022/01/04 06:29:29;;;;;;;;;;;6.40;82.00;;;;;;5003981;28;87129;-41
2022/01/04 06:31:55;;;;;;;;;;;6.40;82.10;;;;;;5004060;28;87581;-41
2022/01/04 06:34:21;;;;;;;;;;;6.30;82.10;;;;;;5002686;28;90541;-41
2022/01/04 06:36:46;;;;;;;;;;;6.30;82.10;;;;;;5006781;28;87170;-41
2022/01/04 06:39:12;;;;;;;;;;;6.40;81.90;;;;;;5003428;28;88299;-41
2022/01/04 06:41:37;;;;;;;;;;;6.30;81.90;;;;;;5003892;28;87751;-41
2022/01/04 06:44:03;;;;;;;;;;;6.30;81.80;;;;;;5003580;28;87897;-41
2022/01/04 06:46:29;;;;;;;;;;;6.30;81.90;;;;;;5003197;28;89435;-41
2022/01/04 06:48:54;;;;;;;;;;;6.30;81.90;;;;;;5003648;28;87112;-41
2022/01/04 06:51:20;;;;;;;;;;;6.30;81.80;;;;;;5004264;28;88659;-41
2022/01/04 06:53:45;;;;;;;;;;;6.20;81.80;;;;;;5003083;28;89422;-41
2022/01/04 06:56:11;;;;;;;;;;;6.20;81.80;;;;;;5003399;28;87126;-41
2022/01/04 06:58:36;;;;;;;;;;;6.30;81.80;;;;;;5005363;28;89148;-41
2022/01/04 07:01:02;;;;;;;;;;;6.30;81.80;;;;;;5003760;28;87152;-41
2022/01/04 07:03:27;;;;;;;;;;;6.20;81.80;;;;;;5003545;28;89162;-41
2022/01/04 07:05:53;;;;;;;;;;;6.20;81.90;;;;;;5003288;28;89895;-41
2022/01/04 07:08:18;;;;;;;;;;;6.20;81.90;;;;;;5003330;28;87042;-41
2022/01/04 07:10:44;;;;;;;;;;;6.20;81.80;;;;;;5003408;28;88006;-41
2022/01/04 07:13:09;;;;;;;;;;;6.10;81.80;;;;;;5002881;28;89564;-41
2022/01/04 07:15:36;;;;;;;;;;;6.20;81.90;;;;;;5004121;28;86201;-41
2022/01/04 07:18:01;;;;;;;;;;;6.20;81.80;;;;;;5003394;28;88097;-41
2022/01/04 07:20:27;;;;;;;;;;;6.20;81.90;;;;;;5005827;28;89723;-41
2022/01/04 07:22:53;;;;;;;;;;;6.20;81.80;;;;;;5002914;28;87952;-41
2022/01/04 07:25:18;;;;;;;;;;;6.10;81.70;;;;;;5002319;28;88618;-42
2022/01/04 07:27:44;;;;;;;;;;;6.20;81.80;;;;;;5003121;28;86992;-41
2022/01/04 07:30:09;;;;;;;;;;;6.10;81.70;;;;;;5003008;28;89080;-41
2022/01/04 07:32:35;;;;;;;;;;;6.10;81.80;;;;;;5002823;28;89468;-41
2022/01/04 07:35:00;;;;;;;;;;;6.10;81.90;;;;;;5002983;28;86913;-41
2022/01/04 07:37:26;;;;;;;;;;;6.10;81.70;;;;;;5003041;28;89189;-41
2022/01/04 07:39:51;;;;;;;;;;;6.10;81.80;;;;;;5006163;28;88912;-41
2022/01/04 07:42:17;;;;;;;;;;;6.10;81.80;;;;;;5003060;28;88227;-41
2022/01/04 07:44:43;;;;;;;;;;;6.10;81.80;;;;;;5002900;28;88085;-41
2022/01/04 07:47:09;;;;;;;;;;;6.00;81.90;;;;;;5003983;28;88054;-41
2022/01/04 07:49:34;;;;;;;;;;;6.10;81.80;;;;;;5006738;28;88280;-41
2022/01/04 07:52:00;;;;;;;;;;;6.10;82.00;;;;;;5006297;28;86870;-41
2022/01/04 07:54:25;;;;;;;;;;;6.10;81.90;;;;;;5006179;28;86838;-41
2022/01/04 07:56:53;;;;;;;;;;;6.10;81.90;;;;;;5006559;28;87467;-41
2022/01/04 07:59:19;;;;;;;;;;;6.10;81.90;;;;;;5005846;28;89521;-41
2022/01/04 08:01:45;;;;;;;;;;;6.00;81.80;;;;;;5009346;28;87114;-41
2022/01/04 08:04:11;;;;;;;;;;;6.00;81.90;;;;;;5005137;28;90411;-41
2022/01/04 08:06:36;;;;;;;;;;;6.00;81.80;;;;;;5006154;28;87132;-41
2022/01/04 08:09:02;;;;;;;;;;;6.10;82.00;;;;;;5006392;28;87145;-41
2022/01/04 08:11:27;;;;;;;;;;;6.00;81.80;;;;;;5005262;28;88713;-41
2022/01/04 08:13:53;;;;;;;;;;;6.00;81.90;;;;;;5005820;28;87142;-41
2022/01/04 08:16:19;;;;;;;;;;;6.00;81.80;;;;;;5006235;28;88927;-41
2022/01/04 08:18:45;;;;;;;;;;;6.00;81.80;;;;;;5005404;28;89442;-41
2022/01/04 08:21:11;;;;;;;;;;;6.00;81.90;;;;;;5005809;28;86911;-41
2022/01/04 08:23:36;;;;;;;;;;;6.00;82.00;;;;;;5008558;28;89465;-41
2022/01/04 08:26:02;;;;;;;;;;;6.00;81.90;;;;;;5005541;28;87147;-41
2022/01/04 08:28:28;;;;;;;;;;;6.00;81.90;;;;;;5006319;28;88913;-41
2022/01/04 08:30:53;;;;;;;;;;;6.00;82.00;;;;;;5005396;28;89819;-41
2022/01/04 08:33:19;;;;;;;;;;;5.90;82.00;;;;;;5005715;28;87184;-41
2022/01/04 08:35:44;;;;;;;;;;;5.90;82.10;;;;;;5005043;28;88900;-41
2022/01/04 08:38:10;;;;;;;;;;;5.90;82.10;;;;;;5005655;28;87970;-41
2022/01/04 08:40:36;;;;;;;;;;;5.90;81.90;;;;;;5005929;28;87214;-41
2022/01/04 08:43:02;;;;;;;;;;;5.90;82.00;;;;;;5005401;28;89039;-41
2022/01/04 08:45:27;;;;;;;;;;;6.00;81.90;;;;;;5008317;28;88326;-41
2022/01/04 08:47:53;;;;;;;;;;;5.90;81.90;;;;;;5005456;28;88988;-41
2022/01/04 08:50:19;;;;;;;;;;;6.00;81.90;;;;;;5005209;28;90001;-41
2022/01/04 08:52:44;;;;;;;;;;;5.90;82.00;;;;;;5005808;28;86339;-41
2022/01/04 08:55:11;;;;;;;;;;;5.90;81.90;;;;;;5005380;28;88085;-41
2022/01/04 08:57:37;;;;;;;;;;;5.90;82.00;;;;;;5004921;28;89886;-41
2022/01/04 09:00:07;;;;;;;;;;;5.90;82.00;;;;;;5004690;28;88033;-41
2022/01/04 09:02:33;;;;;;;;;;;5.90;82.00;;;;;;5005111;28;89528;-41
2022/01/04 09:04:59;;;;;;;;;;;5.90;82.10;;;;;;5004799;28;89393;-41
2022/01/04 09:07:25;;;;;;;;;;;5.90;81.90;;;;;;5008230;28;87148;-41
2022/01/04 09:09:50;;;;;;;;;;;5.90;81.90;;;;;;5004974;28;88173;-41
2022/01/04 09:12:18;;;;;;;;;;;5.90;82.00;;;;;;5004850;28;87181;-41
2022/01/04 09:15:06;;;;;;;;;;;5.90;82.00;;;;;;5005397;28;87411;-41
2022/01/04 09:20:15;;;;;;;;;;;5.80;82.10;;;;;;5005364;28;86952;-41
2022/01/04 09:22:41;;;;;;;;;;;5.80;82.10;;;;;;5004981;28;89173;-41
2022/01/04 09:25:07;;;;;;;;;;;5.80;82.20;;;;;;5003909;28;90660;-41
2022/01/04 09:27:33;;;;;;;;;;;5.90;82.20;;;;;;5004732;28;87211;-41
2022/01/04 09:30:03;;;;;;;;;;;5.90;82.10;;;;;;5007528;28;88595;-41
2022/01/04 09:32:30;;;;;;;;;;;5.90;82.00;;;;;;5004924;28;86968;-41
2022/01/04 09:34:55;;;;;;;;;;;5.90;82.10;;;;;;5004788;28;88924;-41
2022/01/04 09:37:21;;;;;;;;;;;5.90;82.00;;;;;;5004288;28;89460;-41
2022/01/04 09:39:46;;;;;;;;;;;5.80;82.00;;;;;;5004758;28;87201;-41
2022/01/04 09:42:12;;;;;;;;;;;5.80;82.10;;;;;;5005144;28;88780;-41
2022/01/04 09:44:38;;;;;;;;;;;5.80;82.10;;;;;;5004744;28;88209;-41
2022/01/04 09:47:04;;;;;;;;;;;5.90;82.10;;;;;;5004565;28;87166;-41
2022/01/04 09:49:31;;;;;;;;;;;5.90;82.10;;;;;;5006598;28;89055;-41
2022/01/04 09:51:57;;;;;;;;;;;5.80;82.10;;;;;;5004455;28;87152;-41
2022/01/04 09:54:23;;;;;;;;;;;5.90;82.20;;;;;;5004379;28;88976;-41
2022/01/04 09:56:50;;;;;;;;;;;5.90;82.20;;;;;;5004264;28;89842;-41
2022/01/04 09:59:16;;;;;;;;;;;5.80;82.00;;;;;;5004325;28;87125;-41
2022/01/04 10:01:45;;;;;;;;;;;5.80;82.20;;;;;;5004257;28;87951;-41
2022/01/04 10:04:11;;;;;;;;;;;5.80;82.20;;;;;;5002791;28;91276;-41
2022/01/04 10:06:41;;;;;;;;;;;5.80;82.30;;;;;;5004730;28;86380;-41
2022/01/04 10:09:09;;;;;;;;;;;5.80;82.50;;;;;;5003854;28;88211;-41
2022/01/04 10:11:36;;;;;;;;;;;5.80;82.30;;;;;;5006760;28;89167;-41
2022/01/04 10:14:22;;;;;;;;;;;5.80;82.30;;;;;;5003692;28;87658;-41
2022/01/04 10:16:54;;;;;;;;;;;5.80;82.20;;;;;;5003696;28;89814;-41
2022/01/04 10:19:32;;;;;;;;;;;5.80;82.30;;;;;;5003781;28;87178;-41
2022/01/04 10:22:12;;;;;;;;;;;5.80;82.30;;;;;;5004409;28;87477;-41
2022/01/04 10:24:37;;;;;;;;;;;5.80;82.30;;;;;;5003637;28;89817;-41
2022/01/04 10:27:22;;;;;;;;;;;5.80;82.20;;;;;;5003532;28;87178;-41
2022/01/04 10:29:48;;;;;;;;;;;5.80;82.20;;;;;;5004058;28;86872;-41
2022/01/04 10:32:14;;;;;;;;;;;5.80;82.40;;;;;;5004128;28;89096;-41
2022/01/04 10:34:49;;;;;;;;;;;5.80;82.30;;;;;;5006840;28;87117;-41
2022/01/04 10:37:33;;;;;;;;;;;5.90;82.50;;;;;;5003475;28;89601;-41
2022/01/04 10:40:06;;;;;;;;;;;5.80;82.20;;;;;;5003193;28;87951;-41
2022/01/04 10:42:32;;;;;;;;;;;5.80;82.40;;;;;;5003645;28;89711;-41
2022/01/04 10:44:57;;;;;;;;;;;5.70;82.70;;;;;;5003351;28;89397;-41
2022/01/04 10:47:28;;;;;;;;;;;5.80;82.70;;;;;;5003737;28;87145;-41
2022/01/04 10:49:53;;;;;;;;;;;5.80;82.80;;;;;;5003832;28;88725;-41
2022/01/04 10:52:22;;;;;;;;;;;5.80;82.90;;;;;;5003304;28;89966;-41
2022/01/04 10:55:06;;;;;;;;;;;5.80;82.60;;;;;;5003409;28;87030;-41
2022/01/04 10:57:34;;;;;;;;;;;5.80;82.70;;;;;;5006652;28;88106;-41
2022/01/04 11:00:21;;;;;;;;;;;5.80;82.90;;;;;;5003544;28;87065;-41
2022/01/04 11:02:47;;;;;;;;;;;5.80;82.90;;;;;;5003605;28;88842;-41
2022/01/04 11:05:12;;;;;;;;;;;5.80;83.00;;;;;;5002495;28;88116;-41
2022/01/04 11:08:13;;;;;;;;;;;5.80;83.00;;;;;;5003438;28;87060;-41
2022/01/04 11:10:38;;;;;;;;;;;5.80;83.20;;;;;;4991029;28;89122;-41
2022/01/04 11:13:04;;;;;;;;;;;5.70;83.30;;;;;;5003089;28;89087;-41
2022/01/04 11:15:30;;;;;;;;;;;5.70;83.30;;;;;;5003213;28;86854;-41
2022/01/04 11:17:56;;;;;;;;;;;5.70;83.30;;;;;;5003079;28;89020;-41
2022/01/04 11:20:21;;;;;;;;;;;5.70;83.20;;;;;;5005875;28;89812;-41
2022/01/04 11:22:48;;;;;;;;;;;5.80;83.10;;;;;;5006231;28;88936;-41
2022/01/04 11:25:15;;;;;;;;;;;5.80;83.40;;;;;;5006299;28;89504;-42
2022/01/04 11:27:41;;;;;;;;;;;5.70;83.20;;;;;;5006932;28;87063;-41
2022/01/04 11:30:12;;;;;;;;;;;5.80;83.60;;;;;;5006235;28;89162;-41
2022/01/04 11:32:41;;;;;;;;;;;5.80;83.70;;;;;;5006277;28;89726;-41
2022/01/04 11:35:12;;;;;;;;;;;5.80;83.70;;;;;;5006420;28;86937;-41
2022/01/04 11:37:41;;;;;;;;;;;5.80;83.70;;;;;;5006741;28;88716;-42
2022/01/04 11:40:25;;;;;;;;;;;5.80;83.70;;;;;;5006209;28;89374;-41
2022/01/04 11:42:51;;;;;;;;;;;5.80;83.90;;;;;;5009089;28;86995;-41
2022/01/04 11:45:36;;;;;;;;;;;5.80;83.70;;;;;;5006304;28;89431;-41
2022/01/04 11:48:01;;;;;;;;;;;5.80;83.80;;;;;;5007057;28;86338;-41
2022/01/04 11:50:34;;;;;;;;;;;5.80;83.70;;;;;;5006389;28;87993;-41
2022/01/04 11:53:05;;;;;;;;;;;5.80;83.60;;;;;;5006073;28;89827;-41
2022/01/04 11:55:37;;;;;;;;;;;5.80;83.70;;;;;;5005428;28;87997;-41
2022/01/04 11:58:04;;;;;;;;;;;5.80;83.80;;;;;;5006386;28;88227;-41
2022/01/04 12:00:34;;;;;;;;;;;5.90;83.80;;;;;;5006013;28;89516;-41
2022/01/04 12:03:09;;;;;;;;;;;5.90;83.70;;;;;;5009181;28;86907;-41
2022/01/04 12:05:37;;;;;;;;;;;5.90;84.00;;;;;;5005861;28;88523;-41
2022/01/04 12:08:16;;;;;;;;;;;5.80;83.80;;;;;;5006038;28;87165;-41
2022/01/04 12:10:42;;;;;;;;;;;5.90;84.00;;;;;;5006147;28;87986;-41
2022/01/04 12:13:14;;;;;;;;;;;5.90;83.80;;;;;;5006077;28;88559;-41
2022/01/04 12:15:40;;;;;;;;;;;5.90;84.00;;;;;;5005928;28;87146;-41
2022/01/04 12:18:07;;;;;;;;;;;5.90;84.00;;;;;;5005989;28;89017;-41
2022/01/04 12:20:41;;;;;;;;;;;5.80;84.10;;;;;;5004837;28;90740;-41
2022/01/04 12:23:25;;;;;;;;;;;5.90;84.20;;;;;;5006215;28;87155;-41
2022/01/04 12:26:07;;;;;;;;;;;5.90;84.20;;;;;;5007848;28;87918;-42
2022/01/04 12:28:33;;;;;;;;;;;5.90;84.30;;;;;;5005836;28;86825;-41
2022/01/04 12:31:13;;;;;;;;;;;5.90;84.50;;;;;;5005673;28;88812;-42
2022/01/04 12:33:51;;;;;;;;;;;5.90;84.60;;;;;;5005009;28;89500;-41
2022/01/04 12:36:27;;;;;;;;;;;5.90;84.60;;;;;;5005706;28;87194;-41
2022/01/04 12:38:54;;;;;;;;;;;5.90;84.60;;;;;;5006122;28;88972;-41
2022/01/04 12:41:20;;;;;;;;;;;5.90;84.50;;;;;;5005506;28;87241;-41
2022/01/04 12:43:47;;;;;;;;;;;5.90;84.60;;;;;;5005491;28;87094;-41
2022/01/04 12:46:13;;;;;;;;;;;5.90;84.60;;;;;;5004868;28;88818;-41
2022/01/04 12:48:47;;;;;;;;;;;5.90;84.50;;;;;;5006974;28;90136;-41
2022/01/04 12:51:22;;;;;;;;;;;5.90;84.50;;;;;;5005685;28;88779;-41
2022/01/04 12:53:47;;;;;;;;;;;6.00;84.80;;;;;;5005204;28;89253;-41
2022/01/04 12:56:13;;;;;;;;;;;6.00;84.80;;;;;;5005259;28;87207;-41
2022/01/04 12:58:38;;;;;;;;;;;6.00;85.00;;;;;;5005544;28;88107;-41
2022/01/04 13:01:04;;;;;;;;;;;6.00;84.80;;;;;;5005032;28;90078;-41
2022/01/04 13:03:32;;;;;;;;;;;6.00;84.90;;;;;;5005896;28;86443;-41
2022/01/04 13:06:04;;;;;;;;;;;6.00;85.20;;;;;;5005358;28;88522;-41
2022/01/04 13:08:31;;;;;;;;;;;6.00;85.30;;;;;;5004643;28;89455;-41
2022/01/04 13:11:03;;;;;;;;;;;6.00;85.00;;;;;;5007737;28;88049;-41
2022/01/04 13:13:30;;;;;;;;;;;6.00;85.10;;;;;;5004877;28;88038;-41
2022/01/04 13:16:14;;;;;;;;;;;6.00;85.00;;;;;;5005080;28;87142;-41
2022/01/04 13:18:39;;;;;;;;;;;6.00;85.30;;;;;;5005248;28;87385;-41
2022/01/04 13:21:05;;;;;;;;;;;6.00;85.50;;;;;;5004538;28;90115;-41
2022/01/04 13:23:35;;;;;;;;;;;6.10;85.60;;;;;;5005054;28;87118;-41
2022/01/04 13:26:01;;;;;;;;;;;6.10;85.50;;;;;;5004339;28;88131;-41
2022/01/04 13:28:26;;;;;;;;;;;6.10;85.60;;;;;;5005178;28;87604;-41
2022/01/04 13:30:52;;;;;;;;;;;6.10;85.70;;;;;;5004872;28;87152;-41
2022/01/04 13:33:21;;;;;;;;;;;6.10;85.60;;;;;;5007422;28;88884;-42
2022/01/04 13:35:48;;;;;;;;;;;6.10;85.50;;;;;;5003894;28;87957;-41
2022/01/04 13:38:19;;;;;;;;;;;6.10;85.70;;;;;;5004922;28;89887;-41
2022/01/04 13:40:46;;;;;;;;;;;6.10;85.70;;;;;;5004665;28;90201;-41
2022/01/04 13:43:15;;;;;;;;;;;6.10;85.80;;;;;;5004686;28;87074;-41
2022/01/04 13:45:46;;;;;;;;;;;6.10;85.60;;;;;;5003723;28;87812;-41
2022/01/04 13:48:13;;;;;;;;;;;6.20;85.70;;;;;;5003990;28;89147;-41
2022/01/04 13:50:40;;;;;;;;;;;6.20;85.70;;;;;;5004892;28;87081;-41
2022/01/04 13:53:22;;;;;;;;;;;6.10;85.60;;;;;;5007489;28;89261;-42
2022/01/04 13:55:50;;;;;;;;;;;6.20;85.80;;;;;;5004506;28;87109;-41
2022/01/04 13:58:35;;;;;;;;;;;6.20;85.90;;;;;;5004559;28;88762;-41
2022/01/04 14:01:12;;;;;;;;;;;6.20;85.80;;;;;;5003537;28;88895;-41
2022/01/04 14:03:38;;;;;;;;;;;6.20;85.80;;;;;;5004240;28;87157;-42
2022/01/04 14:06:03;;;;;;;;;;;6.20;85.90;;;;;;5004231;28;88078;-42
2022/01/04 14:08:48;;;;;;;;;;;6.20;86.00;;;;;;5003944;28;89597;-41
2022/01/04 14:11:21;;;;;;;;;;;6.20;86.00;;;;;;5004141;28;87243;-41
2022/01/04 14:13:48;;;;;;;;;;;6.20;86.00;;;;;;5004626;28;87766;-41
2022/01/04 14:16:14;;;;;;;;;;;6.30;86.10;;;;;;5006914;28;89183;-42
2022/01/04 14:18:58;;;;;;;;;;;6.30;86.10;;;;;;5004631;28;88885;-41
2022/01/04 14:21:31;;;;;;;;;;;6.30;86.10;;;;;;5003882;28;89411;-41
2022/01/04 14:23:57;;;;;;;;;;;6.30;86.00;;;;;;5003801;28;87027;-41
2022/01/04 14:26:23;;;;;;;;;;;6.30;86.20;;;;;;5002815;28;89078;-42
2022/01/04 14:28:49;;;;;;;;;;;6.30;86.10;;;;;;5003668;28;88993;-41
2022/01/04 14:31:17;;;;;;;;;;;6.30;86.10;;;;;;5003894;28;87197;-41
2022/01/04 14:33:43;;;;;;;;;;;6.30;86.20;;;;;;5003482;28;88729;-43
2022/01/04 14:36:09;;;;;;;;;;;6.30;84.10;;;;;;5003456;28;89128;-44
2022/01/04 14:38:35;;;;;;;;;;;6.30;80.90;;;;;;5006711;28;87326;-42
2022/01/04 14:41:00;;;;;;;;;;;6.40;81.00;;;;;;5003287;28;89991;-41
2022/01/04 14:43:26;;;;;;;;;;;6.40;80.50;;;;;;5004214;28;86504;-43